Time;durP1;ratioP1;P1;durP2;ratioP2;P2;SDS_P1;SDS_P2;PMS_P1;PMS_P2;Temp;Humidity;BMP_temperature;BMP_pressure;BME280_temperature;BME280_humidity;BME280_pressure;Samples;Min_cycle;Max_cycle;Signal;HPM_P1;HPM_P2
2020/12/12 00:02:59;;;;;;;35.08;25.42;;;4.60;97.40;;;;;;6271159;28;20053;-74
2020/12/12 00:06:00;;;;;;;35.92;25.42;;;4.60;97.40;;;;;;6271106;28;20132;-74
2020/12/12 00:09:01;;;;;;;33.97;26.67;;;4.60;97.50;;;;;;6270675;28;20505;-73
2020/12/12 00:12:04;;;;;;;39.47;24.73;;;4.60;97.40;;;;;;6271819;28;20131;-74
2020/12/12 00:15:05;;;;;;;37.50;27.27;;;4.60;97.40;;;;;;6270783;28;20106;-74
2020/12/12 00:18:08;;;;;;;32.58;24.23;;;4.70;97.40;;;;;;6275229;28;20199;-73
2020/12/12 00:21:11;;;;;;;35.13;26.52;;;4.60;97.30;;;;;;6295450;28;20591;-73
2020/12/12 00:24:12;;;;;;;32.25;23.98;;;4.60;97.40;;;;;;6295061;28;20635;-73
2020/12/12 00:27:13;;;;;;;31.13;21.77;;;4.60;97.30;;;;;;6295794;28;20052;-73
2020/12/12 00:30:14;;;;;;;28.33;22.98;;;4.60;97.40;;;;;;6296094;28;20516;-73
2020/12/12 00:33:16;;;;;;;30.45;21.30;;;4.60;97.30;;;;;;6295528;28;20101;-74
2020/12/12 00:36:18;;;;;;;35.40;22.65;;;4.50;97.30;;;;;;6294724;28;20517;-73
2020/12/12 00:39:20;;;;;;;27.63;21.65;;;4.60;97.30;;;;;;6294701;28;20094;-73
2020/12/12 00:42:21;;;;;;;30.00;21.95;;;4.50;97.30;;;;;;6294959;28;20441;-73
2020/12/12 00:45:23;;;;;;;31.25;22.92;;;4.50;97.40;;;;;;6294918;28;20521;-73
2020/12/12 00:48:25;;;;;;;30.83;23.65;;;4.50;97.50;;;;;;6295642;28;20449;-73
2020/12/12 00:51:26;;;;;;;32.75;24.38;;;4.50;97.50;;;;;;6294985;28;20131;-73
2020/12/12 00:54:27;;;;;;;31.92;24.80;;;4.50;97.40;;;;;;6295739;28;20052;-73
2020/12/12 00:57:29;;;;;;;38.92;26.35;;;4.50;97.40;;;;;;6294882;28;20064;-73
2020/12/12 01:00:33;;;;;;;30.42;22.13;;;4.50;97.40;;;;;;6295163;28;20186;-73
2020/12/12 01:03:35;;;;;;;41.25;27.38;;;4.50;97.40;;;;;;6294912;28;20064;-73
2020/12/12 01:06:36;;;;;;;38.45;28.35;;;4.50;97.50;;;;;;6295026;28;20183;-73
2020/12/12 01:09:37;;;;;;;32.40;25.67;;;4.50;97.50;;;;;;6291469;28;20048;-73
2020/12/12 01:12:39;;;;;;;37.42;27.27;;;4.50;97.50;;;;;;6294477;28;20048;-73
2020/12/12 01:15:40;;;;;;;39.20;24.60;;;4.60;97.40;;;;;;6294091;28;20514;-73
2020/12/12 01:18:42;;;;;;;40.35;29.63;;;4.60;97.40;;;;;;6294257;28;20044;-73
2020/12/12 01:21:44;;;;;;;37.85;27.10;;;4.60;97.40;;;;;;6295049;28;20045;-73
2020/12/12 01:24:45;;;;;;;37.20;28.38;;;4.60;97.40;;;;;;6295240;28;20127;-72
2020/12/12 01:27:46;;;;;;;36.47;26.58;;;4.60;97.40;;;;;;6294582;28;20086;-73
2020/12/12 01:30:48;;;;;;;40.50;28.63;;;4.70;97.40;;;;;;6294367;28;20413;-73
2020/12/12 01:33:50;;;;;;;47.13;32.13;;;4.70;97.40;;;;;;6295342;28;20053;-73
2020/12/12 01:36:52;;;;;;;43.13;32.38;;;4.70;97.60;;;;;;6294041;28;20040;-74
2020/12/12 01:39:53;;;;;;;43.15;31.02;;;4.70;97.40;;;;;;6294388;28;20059;-73
2020/12/12 01:42:54;;;;;;;44.95;31.40;;;4.80;97.50;;;;;;6294792;28;20131;-72
2020/12/12 01:45:56;;;;;;;45.45;32.90;;;4.80;97.40;;;;;;6294845;28;20056;-73
2020/12/12 01:48:58;;;;;;;44.22;32.50;;;4.80;97.50;;;;;;6293812;28;20502;-73
2020/12/12 01:52:00;;;;;;;43.47;30.35;;;4.80;97.40;;;;;;6294673;28;20044;-73
2020/12/12 01:55:02;;;;;;;43.92;31.60;;;4.80;97.30;;;;;;6297046;28;20182;-73
2020/12/12 01:58:04;;;;;;;40.28;26.63;;;4.80;97.50;;;;;;6299147;28;20048;-72
2020/12/12 02:01:08;;;;;;;39.42;28.35;;;4.80;97.50;;;;;;6298940;28;20071;-73
2020/12/12 02:04:17;;;;;;;40.67;27.90;;;4.80;97.50;;;;;;6298331;28;20125;-72
2020/12/12 02:07:19;;;;;;;36.88;26.02;;;4.80;97.50;;;;;;6298620;28;20418;-73
2020/12/12 02:10:21;;;;;;;35.40;26.00;;;4.80;97.60;;;;;;6299169;28;20048;-73
2020/12/12 02:13:22;;;;;;;33.55;24.77;;;4.90;97.60;;;;;;6298348;28;20120;-73
2020/12/12 02:16:24;;;;;;;30.70;24.40;;;4.80;97.50;;;;;;6298034;28;20146;-73
2020/12/12 02:19:26;;;;;;;35.05;25.60;;;4.80;97.50;;;;;;6299606;28;20062;-73
2020/12/12 02:22:28;;;;;;;36.45;25.98;;;4.90;97.50;;;;;;6298769;28;20139;-73
2020/12/12 02:25:29;;;;;;;36.15;25.00;;;4.80;97.40;;;;;;6298659;28;20041;-73
2020/12/12 02:28:36;;;;;;;35.72;27.33;;;4.80;97.50;;;;;;6298244;28;20157;-73
2020/12/12 02:31:38;;;;;;;33.17;28.23;;;4.80;97.50;;;;;;6298481;28;20044;-73
2020/12/12 02:34:39;;;;;;;39.55;26.48;;;4.80;97.60;;;;;;6297998;28;20131;-73
2020/12/12 02:37:41;;;;;;;39.03;28.48;;;4.80;97.70;;;;;;6298437;28;20186;-72
2020/12/12 02:40:42;;;;;;;33.45;25.85;;;4.80;97.70;;;;;;6297982;28;20041;-73
2020/12/12 02:43:47;;;;;;;46.03;28.73;;;4.80;97.70;;;;;;6297494;28;20048;-73
2020/12/12 02:46:48;;;;;;;38.50;27.05;;;4.80;97.70;;;;;;6297096;28;20493;-73
2020/12/12 02:50:07;;;;;;;37.97;28.30;;;4.80;97.70;;;;;;6298384;28;20094;-73
2020/12/12 02:53:10;;;;;;;37.08;27.58;;;4.80;97.80;;;;;;6298073;28;20123;-73
2020/12/12 02:56:14;;;;;;;44.17;31.33;;;4.70;97.60;;;;;;6296848;28;20174;-73
2020/12/12 02:59:15;;;;;;;46.33;30.10;;;4.70;97.60;;;;;;6297565;28;20101;-73
2020/12/12 03:02:16;;;;;;;36.45;25.50;;;4.70;97.70;;;;;;6298042;28;20059;-73
2020/12/12 03:05:19;;;;;;;40.75;29.65;;;4.70;97.80;;;;;;6296242;28;20906;-73
2020/12/12 03:08:21;;;;;;;40.92;28.70;;;4.70;97.80;;;;;;6297073;28;20131;-73
2020/12/12 03:11:22;;;;;;;39.45;29.45;;;4.70;98.00;;;;;;6297897;28;20178;-73
2020/12/12 03:14:23;;;;;;;37.45;26.65;;;4.70;98.10;;;;;;6297012;28;20053;-73
2020/12/12 03:17:25;;;;;;;39.38;28.70;;;4.70;98.30;;;;;;6296194;28;20131;-73
2020/12/12 03:20:26;;;;;;;41.30;28.20;;;4.70;98.40;;;;;;6296830;28;20044;-73
2020/12/12 03:23:28;;;;;;;47.13;28.60;;;4.70;98.40;;;;;;6297419;28;20048;-73
2020/12/12 03:26:29;;;;;;;42.83;29.17;;;4.70;98.40;;;;;;6297051;28;20441;-74
2020/12/12 03:29:31;;;;;;;40.85;28.40;;;4.70;98.60;;;;;;6297499;28;20048;-73
2020/12/12 03:32:32;;;;;;;45.10;28.90;;;4.70;99.20;;;;;;6297247;28;20509;-73
2020/12/12 03:35:34;;;;;;;42.25;29.80;;;4.70;99.50;;;;;;6296113;28;20071;-73
2020/12/12 03:38:36;;;;;;;47.30;30.90;;;4.70;99.60;;;;;;6297061;28;20135;-74
2020/12/12 03:41:37;;;;;;;49.17;32.58;;;4.70;99.80;;;;;;6296120;28;20198;-73
2020/12/12 03:44:38;;;;;;;46.42;30.30;;;4.70;99.90;;;;;;6296245;28;20048;-73
2020/12/12 03:47:40;;;;;;;45.83;29.50;;;4.70;99.90;;;;;;6295649;28;20048;-73
2020/12/12 03:50:41;;;;;;;43.95;29.48;;;4.70;99.90;;;;;;6297069;28;20470;-73
2020/12/12 03:53:43;;;;;;;41.33;30.33;;;4.70;99.90;;;;;;6296367;28;20509;-73
2020/12/12 03:56:44;;;;;;;46.60;30.02;;;4.70;99.90;;;;;;6295084;28;20123;-73
2020/12/12 03:59:46;;;;;;;41.72;29.98;;;4.70;99.90;;;;;;6295971;28;20170;-73
2020/12/12 04:02:47;;;;;;;45.22;30.13;;;4.70;99.90;;;;;;6295783;28;20098;-73
2020/12/12 04:05:49;;;;;;;46.90;29.08;;;4.60;99.90;;;;;;6295682;28;20110;-73
2020/12/12 04:08:51;;;;;;;44.70;29.70;;;4.70;99.90;;;;;;6296508;28;20048;-73
2020/12/12 04:11:53;;;;;;;41.72;28.55;;;4.70;99.90;;;;;;6296326;28;20128;-73
2020/12/12 04:14:54;;;;;;;40.53;29.02;;;4.70;99.90;;;;;;6295670;28;20135;-73
2020/12/12 04:17:55;;;;;;;46.33;31.13;;;4.70;99.90;;;;;;6295271;28;20452;-73
2020/12/12 04:20:56;;;;;;;43.85;29.55;;;4.70;99.90;;;;;;6294992;28;20055;-73
2020/12/12 04:23:59;;;;;;;42.65;29.92;;;4.70;99.90;;;;;;6295634;28;20045;-73
2020/12/12 04:27:00;;;;;;;48.75;33.15;;;4.70;99.90;;;;;;6295236;28;20044;-73
2020/12/12 04:30:01;;;;;;;47.70;30.95;;;4.70;99.90;;;;;;6295643;28;20052;-73
2020/12/12 04:33:03;;;;;;;48.15;29.92;;;4.70;99.90;;;;;;6295259;28;20634;-73
2020/12/12 04:36:04;;;;;;;48.83;30.35;;;4.70;99.90;;;;;;6295214;28;20131;-73
2020/12/12 04:39:06;;;;;;;52.60;32.33;;;4.80;99.90;;;;;;6295204;28;20127;-73
2020/12/12 04:42:08;;;;;;;53.88;30.10;;;4.80;99.90;;;;;;6295659;28;20048;-73
2020/12/12 04:45:10;;;;;;;47.08;30.85;;;4.80;99.90;;;;;;6295470;28;20123;-73
2020/12/12 04:48:11;;;;;;;47.47;30.42;;;4.80;99.90;;;;;;6294744;28;20051;-74
2020/12/12 04:51:13;;;;;;;49.22;30.98;;;4.80;99.90;;;;;;6295017;28;20051;-73
2020/12/12 04:54:19;;;;;;;46.05;30.33;;;4.80;99.90;;;;;;6295179;28;20457;-73
2020/12/12 04:57:20;;;;;;;48.53;30.42;;;4.80;99.90;;;;;;6294607;28;20044;-73
2020/12/12 05:00:22;;;;;;;50.53;29.60;;;4.80;99.90;;;;;;6294503;28;20044;-74
2020/12/12 05:03:26;;;;;;;45.05;29.13;;;4.80;99.90;;;;;;6295849;28;20668;-73
2020/12/12 05:06:29;;;;;;;51.53;30.17;;;4.80;99.90;;;;;;6294447;28;20190;-73
2020/12/12 05:09:31;;;;;;;44.75;27.73;;;4.80;99.90;;;;;;6294615;28;20418;-73
2020/12/12 05:12:34;;;;;;;54.42;32.55;;;4.80;99.90;;;;;;6294666;28;20128;-73
2020/12/12 05:15:35;;;;;;;49.88;31.95;;;4.70;99.90;;;;;;6294143;28;20608;-73
2020/12/12 05:18:36;;;;;;;51.30;32.42;;;4.70;99.90;;;;;;6294635;28;20405;-73
2020/12/12 05:21:45;;;;;;;47.20;30.27;;;4.70;99.90;;;;;;6295261;28;20048;-73
2020/12/12 05:24:48;;;;;;;51.92;32.30;;;4.70;99.90;;;;;;6294043;28;20052;-73
2020/12/12 05:27:49;;;;;;;54.58;32.40;;;4.70;99.90;;;;;;6295501;28;20201;-74
2020/12/12 05:30:53;;;;;;;60.15;33.10;;;4.70;99.90;;;;;;6299252;28;20048;-73
2020/12/12 05:33:54;;;;;;;59.97;31.42;;;4.70;99.90;;;;;;6299215;28;20635;-74
2020/12/12 05:36:56;;;;;;;57.72;32.45;;;4.70;99.90;;;;;;6298600;28;20048;-73
2020/12/12 05:39:58;;;;;;;54.28;32.05;;;4.70;99.90;;;;;;6300088;28;20128;-73
2020/12/12 05:43:02;;;;;;;62.50;32.83;;;4.80;99.90;;;;;;6298817;28;20090;-73
2020/12/12 05:46:03;;;;;;;52.03;30.13;;;4.80;99.90;;;;;;6299554;28;20049;-73
2020/12/12 05:49:06;;;;;;;56.97;32.03;;;4.80;99.90;;;;;;6298860;28;20510;-73
2020/12/12 05:52:07;;;;;;;50.63;32.38;;;4.80;99.90;;;;;;6299167;28;20068;-73
2020/12/12 05:55:09;;;;;;;52.80;32.85;;;4.90;99.90;;;;;;6298358;28;20041;-73
2020/12/12 05:58:11;;;;;;;57.72;34.40;;;4.90;99.90;;;;;;6299807;28;20070;-73
2020/12/12 06:01:17;;;;;;;66.15;34.33;;;4.90;99.90;;;;;;6298546;28;20050;-74
2020/12/12 06:04:23;;;;;;;67.00;33.50;;;5.00;99.90;;;;;;6298363;28;20048;-73
2020/12/12 06:07:29;;;;;;;56.67;32.78;;;5.00;99.90;;;;;;6298120;28;20131;-73
2020/12/12 06:10:32;;;;;;;50.03;30.55;;;5.00;99.90;;;;;;6298780;28;20612;-73
2020/12/12 06:13:35;;;;;;;60.92;32.90;;;5.00;99.90;;;;;;6299074;28;20049;-73
2020/12/12 06:16:38;;;;;;;46.90;26.45;;;5.00;99.90;;;;;;6297777;28;20041;-74
2020/12/12 06:19:46;;;;;;;50.38;29.77;;;5.00;99.90;;;;;;6298020;28;20045;-73
2020/12/12 06:22:47;;;;;;;54.92;31.70;;;5.00;99.90;;;;;;6298653;28;20198;-73
2020/12/12 06:25:49;;;;;;;50.88;33.78;;;5.00;99.90;;;;;;6298698;28;20182;-73
2020/12/12 06:28:53;;;;;;;51.78;32.47;;;5.00;99.90;;;;;;6297950;28;20201;-73
2020/12/12 06:31:55;;;;;;;57.20;32.60;;;5.00;99.90;;;;;;6299167;28;20128;-74
2020/12/12 06:34:56;;;;;;;55.22;33.10;;;5.00;99.90;;;;;;6297712;28;20102;-73
2020/12/12 06:38:18;;;;;;;52.50;30.85;;;5.00;99.90;;;;;;6298380;28;20048;-74
2020/12/12 06:41:34;;;;;;;53.13;32.38;;;5.10;99.90;;;;;;6297636;28;20185;-73
2020/12/12 06:44:37;;;;;;;56.25;32.00;;;5.10;99.90;;;;;;6297958;28;20059;-74
2020/12/12 06:47:40;;;;;;;55.85;33.65;;;5.10;99.90;;;;;;6298545;28;20077;-74
2020/12/12 06:50:43;;;;;;;59.38;30.17;;;5.00;99.90;;;;;;6298354;28;20565;-73
2020/12/12 06:53:45;;;;;;;60.65;32.70;;;4.90;99.90;;;;;;6297769;28;20058;-73
2020/12/12 06:56:47;;;;;;;52.38;29.23;;;4.90;99.90;;;;;;6296891;28;20131;-74
2020/12/12 06:59:50;;;;;;;52.47;30.05;;;5.00;99.90;;;;;;6297338;28;20045;-74
2020/12/12 07:02:56;;;;;;;47.20;30.08;;;5.10;99.90;;;;;;6296899;28;20135;-74
2020/12/12 07:06:05;;;;;;;51.95;27.27;;;5.10;99.90;;;;;;6287162;28;20170;-74
2020/12/12 07:09:09;;;;;;;52.40;28.80;;;5.10;99.90;;;;;;6279684;28;20490;-73
2020/12/12 07:12:11;;;;;;;49.83;29.58;;;5.10;99.90;;;;;;6296604;28;20587;-74
2020/12/12 07:15:12;;;;;;;46.00;26.58;;;5.20;99.90;;;;;;6296298;28;20154;-74
2020/12/12 07:18:14;;;;;;;55.25;29.98;;;5.20;99.90;;;;;;6296639;28;20194;-73
2020/12/12 07:21:16;;;;;;;49.92;28.33;;;5.30;99.90;;;;;;6296659;28;20051;-74
2020/12/12 07:24:17;;;;;;;58.03;30.65;;;5.30;99.90;;;;;;6296040;28;20123;-74
2020/12/12 07:27:19;;;;;;;44.25;26.15;;;5.30;99.90;;;;;;6296709;28;20055;-74
2020/12/12 07:30:20;;;;;;;38.15;24.30;;;5.30;99.90;;;;;;6297077;28;20127;-73
2020/12/12 07:33:22;;;;;;;46.10;26.00;;;5.40;99.90;;;;;;6295990;28;20049;-74
2020/12/12 07:36:23;;;;;;;48.75;28.13;;;5.40;99.90;;;;;;6295730;28;20183;-74
2020/12/12 07:39:29;;;;;;;57.13;27.85;;;5.40;99.90;;;;;;6296585;28;20127;-74
2020/12/12 07:42:35;;;;;;;50.85;28.70;;;5.50;99.90;;;;;;6296585;28;20139;-74
2020/12/12 07:45:48;;;;;;;56.38;30.65;;;5.60;99.90;;;;;;6295672;28;20693;-74
2020/12/12 07:49:00;;;;;;;47.33;25.75;;;5.70;99.90;;;;;;6295860;28;20094;-74
2020/12/12 07:52:06;;;;;;;42.97;26.88;;;5.70;99.90;;;;;;6294436;28;20566;-74
2020/12/12 07:55:09;;;;;;;51.55;29.25;;;5.80;99.90;;;;;;6296169;28;20051;-74
2020/12/12 07:58:18;;;;;;;42.33;26.20;;;5.80;99.90;;;;;;6295807;28;20174;-74
2020/12/12 08:01:23;;;;;;;43.53;27.20;;;5.80;99.90;;;;;;6295659;28;20049;-74
2020/12/12 08:04:25;;;;;;;49.45;27.90;;;5.80;99.90;;;;;;6295915;28;20114;-74
2020/12/12 08:07:29;;;;;;;45.25;27.90;;;5.80;99.90;;;;;;6295270;28;20127;-74
2020/12/12 08:10:31;;;;;;;45.97;27.73;;;5.80;99.90;;;;;;6297012;28;20052;-73
2020/12/12 08:13:33;;;;;;;49.08;26.95;;;5.80;99.90;;;;;;6295579;28;20048;-74
2020/12/12 08:16:40;;;;;;;50.53;27.38;;;5.80;99.90;;;;;;6294786;28;20202;-74
2020/12/12 08:19:48;;;;;;;45.57;26.03;;;5.90;99.90;;;;;;6296207;28;20052;-73
2020/12/12 08:22:50;;;;;;;51.53;27.77;;;5.90;99.90;;;;;;6295344;28;20390;-74
2020/12/12 08:25:52;;;;;;;42.38;26.67;;;5.90;99.90;;;;;;6295605;28;20055;-74
2020/12/12 08:28:54;;;;;;;42.97;26.58;;;6.00;99.90;;;;;;6295373;28;20123;-74
2020/12/12 08:31:55;;;;;;;43.42;25.05;;;6.00;99.90;;;;;;6295137;28;20135;-73
2020/12/12 08:35:18;;;;;;;35.50;23.42;;;6.10;99.90;;;;;;6295073;28;20052;-74
2020/12/12 08:38:19;;;;;;;34.55;20.77;;;6.10;99.90;;;;;;6295375;28;20074;-74
2020/12/12 08:41:27;;;;;;;35.28;21.92;;;6.20;99.90;;;;;;6294973;28;20143;-74
2020/12/12 08:44:29;;;;;;;39.78;21.73;;;6.20;99.90;;;;;;6296248;28;20123;-73
2020/12/12 08:47:30;;;;;;;36.20;24.15;;;6.30;99.90;;;;;;6294545;28;20055;-74
2020/12/12 08:50:49;;;;;;;40.13;22.27;;;6.30;99.90;;;;;;6296162;28;20052;-74
2020/12/12 08:53:51;;;;;;;36.63;23.40;;;6.40;99.90;;;;;;6294851;28;20124;-74
2020/12/12 08:57:07;;;;;;;34.50;22.30;;;6.40;99.90;;;;;;6294353;28;20464;-74
2020/12/12 09:00:10;;;;;;;40.63;22.65;;;6.50;99.90;;;;;;6295412;28;20097;-74
2020/12/12 09:03:15;;;;;;;39.90;24.08;;;6.50;99.90;;;;;;6296539;28;20040;-74
2020/12/12 09:06:16;;;;;;;35.25;21.85;;;6.50;99.90;;;;;;6300289;28;20053;-74
2020/12/12 09:09:19;;;;;;;31.17;20.85;;;6.60;99.90;;;;;;6300673;28;20056;-73
2020/12/12 09:12:20;;;;;;;31.42;21.02;;;6.60;99.90;;;;;;6299918;28;20048;-74
2020/12/12 09:15:23;;;;;;;32.05;19.73;;;6.70;99.90;;;;;;6297294;28;20056;-74
2020/12/12 09:18:24;;;;;;;23.35;16.45;;;6.70;99.90;;;;;;6300197;28;20135;-74
2020/12/12 09:21:25;;;;;;;26.95;17.05;;;6.80;99.90;;;;;;6299700;28;20113;-74
2020/12/12 09:24:27;;;;;;;29.55;14.40;;;6.80;99.90;;;;;;6299916;28;20049;-74
2020/12/12 09:27:29;;;;;;;20.92;12.63;;;6.80;99.90;;;;;;6298727;28;20604;-74
2020/12/12 09:30:31;;;;;;;15.68;9.27;;;6.90;99.90;;;;;;6300356;28;20146;-74
2020/12/12 09:33:33;;;;;;;13.30;8.65;;;6.90;99.90;;;;;;6299187;28;20094;-74
2020/12/12 09:36:34;;;;;;;8.20;6.32;;;7.10;99.90;;;;;;6300196;28;20052;-74
2020/12/12 09:39:35;;;;;;;7.47;5.32;;;7.10;99.90;;;;;;6298802;28;20049;-74
2020/12/12 09:42:37;;;;;;;9.63;5.43;;;7.20;99.90;;;;;;6299706;28;20422;-74
2020/12/12 09:45:39;;;;;;;8.32;4.60;;;7.20;99.90;;;;;;6299513;28;20147;-74
2020/12/12 09:48:41;;;;;;;6.93;4.00;;;7.30;99.90;;;;;;6298400;28;20044;-74
2020/12/12 09:51:45;;;;;;;5.88;4.60;;;7.30;99.90;;;;;;6298942;28;20049;-74
2020/12/12 09:54:46;;;;;;;6.72;3.97;;;7.40;99.90;;;;;;6299011;28;20486;-74
2020/12/12 09:57:48;;;;;;;5.03;3.47;;;7.40;99.90;;;;;;6298981;28;20127;-73
2020/12/12 10:00:50;;;;;;;4.35;3.78;;;7.50;99.90;;;;;;6298344;28;20046;-75
2020/12/12 10:03:51;;;;;;;5.22;3.75;;;7.50;99.90;;;;;;6298808;28;20055;-74
2020/12/12 10:06:52;;;;;;;3.88;3.55;;;7.50;99.90;;;;;;6297950;28;20501;-74
2020/12/12 10:09:54;;;;;;;9.70;5.65;;;7.60;99.90;;;;;;6299634;28;20189;-74
2020/12/12 10:12:55;;;;;;;4.03;2.45;;;7.60;99.90;;;;;;6297725;28;20050;-74
2020/12/12 10:15:58;;;;;;;5.43;3.42;;;7.70;99.90;;;;;;6291069;28;20048;-74
2020/12/12 10:18:59;;;;;;;4.00;2.75;;;7.70;99.90;;;;;;6291651;28;20131;-74
2020/12/12 10:22:00;;;;;;;6.53;2.65;;;7.80;99.90;;;;;;6294282;28;20532;-75
2020/12/12 10:25:02;;;;;;;4.97;3.25;;;7.80;99.90;;;;;;6297081;28;20067;-74
2020/12/12 10:28:03;;;;;;;5.20;3.00;;;7.80;99.90;;;;;;6296488;28;20039;-74
2020/12/12 10:31:05;;;;;;;6.22;3.42;;;7.80;99.90;;;;;;6289812;28;20123;-75
2020/12/12 10:34:06;;;;;;;4.40;3.00;;;7.80;99.90;;;;;;6293824;28;20049;-75
2020/12/12 10:37:08;;;;;;;4.10;2.97;;;7.90;99.90;;;;;;6296520;28;20168;-75
2020/12/12 10:40:14;;;;;;;4.78;3.15;;;7.90;99.90;;;;;;6296018;28;20040;-74
2020/12/12 10:43:16;;;;;;;7.35;4.07;;;7.90;99.90;;;;;;6296914;28;20049;-75
2020/12/12 10:46:18;;;;;;;8.48;4.05;;;7.90;99.90;;;;;;6296431;28;20055;-74
2020/12/12 10:49:19;;;;;;;6.80;4.55;;;7.90;99.90;;;;;;6297037;28;20445;-74
2020/12/12 10:52:21;;;;;;;5.63;4.68;;;8.00;99.90;;;;;;6296479;28;20123;-74
2020/12/12 10:55:24;;;;;;;6.90;5.82;;;8.00;99.90;;;;;;6296557;28;20040;-74
2020/12/12 10:58:26;;;;;;;7.03;6.25;;;8.00;99.90;;;;;;6296531;28;20148;-73
2020/12/12 11:01:28;;;;;;;9.88;5.95;;;8.00;99.90;;;;;;6295662;28;20052;-74
2020/12/12 11:04:32;;;;;;;8.38;6.68;;;8.00;99.90;;;;;;6295914;28;20045;-74
2020/12/12 11:07:33;;;;;;;9.20;6.10;;;8.00;99.90;;;;;;6293252;28;20105;-74
2020/12/12 11:10:35;;;;;;;11.48;9.10;;;7.90;99.90;;;;;;6288197;28;20127;-75
2020/12/12 11:13:36;;;;;;;14.52;7.47;;;7.90;99.90;;;;;;6284984;28;20396;-74
2020/12/12 11:16:38;;;;;;;10.57;8.00;;;7.90;99.90;;;;;;6287452;28;20124;-74
2020/12/12 11:19:39;;;;;;;11.57;9.20;;;8.00;99.90;;;;;;6290135;28;20125;-74
2020/12/12 11:22:41;;;;;;;14.80;9.10;;;8.00;99.90;;;;;;6279110;28;20556;-75
2020/12/12 11:25:42;;;;;;;16.90;10.48;;;8.00;99.90;;;;;;6290745;28;20102;-73
2020/12/12 11:28:45;;;;;;;14.57;9.57;;;8.00;99.90;;;;;;6295216;28;20067;-74
2020/12/12 11:31:50;;;;;;;17.08;11.50;;;8.00;99.90;;;;;;6277721;28;20118;-75
2020/12/12 11:34:57;;;;;;;15.05;11.00;;;8.00;99.90;;;;;;6283125;28;20126;-74
2020/12/12 11:38:15;;;;;;;21.40;13.03;;;8.00;99.90;;;;;;6295541;28;20129;-74
2020/12/12 11:41:29;;;;;;;15.87;11.60;;;8.10;99.90;;;;;;6295566;28;20135;-75
2020/12/12 11:44:53;;;;;;;18.33;13.35;;;8.10;99.90;;;;;;6294843;28;20513;-75
2020/12/12 11:47:55;;;;;;;16.63;12.65;;;8.10;99.90;;;;;;6289003;28;20040;-75
2020/12/12 11:50:57;;;;;;;23.35;14.73;;;8.10;99.90;;;;;;6294795;28;20086;-75
2020/12/12 11:53:58;;;;;;;18.38;14.63;;;8.20;99.90;;;;;;6295131;28;20265;-75
2020/12/12 11:57:03;;;;;;;75.20;58.53;;;8.20;99.90;;;;;;6294817;28;20127;-75
2020/12/12 12:00:09;;;;;;;64.10;40.22;;;8.30;99.90;;;;;;6291306;28;20045;-74
2020/12/12 12:03:12;;;;;;;175.55;132.98;;;8.30;99.90;;;;;;6291858;28;20040;-74
2020/12/12 12:06:13;;;;;;;32.75;25.42;;;8.40;99.90;;;;;;6293603;28;20044;-74
2020/12/12 12:09:21;;;;;;;20.33;15.63;;;8.40;99.90;;;;;;6294087;28;20498;-74
2020/12/12 12:12:23;;;;;;;23.88;14.95;;;8.50;99.90;;;;;;6292109;28;20047;-74
2020/12/12 12:15:24;;;;;;;19.25;13.05;;;8.50;99.90;;;;;;6289213;28;20056;-74
2020/12/12 12:18:26;;;;;;;20.90;13.35;;;8.50;99.90;;;;;;6294200;28;20049;-75
2020/12/12 12:21:28;;;;;;;19.23;12.27;;;8.50;99.90;;;;;;6294333;28;20048;-75
2020/12/12 12:24:29;;;;;;;17.00;12.43;;;8.50;99.90;;;;;;6293256;28;20051;-75
2020/12/12 12:27:30;;;;;;;12.15;10.02;;;8.50;99.90;;;;;;6294057;28;20124;-75
2020/12/12 12:30:31;;;;;;;14.60;11.73;;;8.50;99.90;;;;;;6294411;28;20041;-74
2020/12/12 12:33:34;;;;;;;13.40;10.38;;;8.50;99.90;;;;;;6294483;28;20124;-74
2020/12/12 12:36:38;;;;;;;16.50;9.93;;;8.50;99.90;;;;;;6293707;28;20639;-75
2020/12/12 12:39:39;;;;;;;14.95;10.40;;;8.50;99.90;;;;;;6287882;28;20051;-75
2020/12/12 12:42:41;;;;;;;14.65;9.88;;;8.50;99.90;;;;;;6294456;28;20518;-74
2020/12/12 12:45:42;;;;;;;17.73;9.15;;;8.50;99.90;;;;;;6294092;28;20041;-75
2020/12/12 12:48:44;;;;;;;13.57;9.90;;;8.50;99.90;;;;;;6277117;28;20119;-75
2020/12/12 12:51:46;;;;;;;12.05;7.93;;;8.50;99.90;;;;;;6294765;28;20119;-75
2020/12/12 12:54:47;;;;;;;11.45;7.88;;;8.50;99.90;;;;;;6294126;28;20083;-74
2020/12/12 12:57:48;;;;;;;10.80;7.85;;;8.40;99.90;;;;;;6294117;28;20050;-75
2020/12/12 13:00:49;;;;;;;6.97;6.05;;;8.40;99.90;;;;;;6293940;28;20384;-75
2020/12/12 13:03:53;;;;;;;11.02;6.35;;;8.40;99.90;;;;;;6291244;28;20145;-75
2020/12/12 13:06:54;;;;;;;10.98;7.80;;;8.40;99.90;;;;;;6287844;28;20498;-75
2020/12/12 13:09:55;;;;;;;13.63;9.88;;;8.40;99.90;;;;;;6295605;28;20056;-75
2020/12/12 13:12:57;;;;;;;11.38;6.45;;;8.40;99.90;;;;;;6293486;28;20048;-75
2020/12/12 13:15:58;;;;;;;9.48;6.38;;;8.40;99.90;;;;;;6294154;28;20048;-75
2020/12/12 13:19:04;;;;;;;9.25;6.20;;;8.40;99.90;;;;;;6284946;28;20037;-76
2020/12/12 13:22:07;;;;;;;7.40;5.00;;;8.40;99.90;;;;;;6294682;28;20109;-75
2020/12/12 13:25:08;;;;;;;6.90;5.03;;;8.30;99.90;;;;;;6293646;28;20097;-76
2020/12/12 13:31:30;;;;;;;6.32;5.03;;;8.30;99.90;;;;;;6293615;28;20615;-74
2020/12/12 13:34:32;;;;;;;11.90;5.60;;;8.40;99.90;;;;;;6293952;28;20441;-75
2020/12/12 13:37:34;;;;;;;8.57;4.78;;;8.40;99.90;;;;;;6292274;28;20156;-74
2020/12/12 13:40:35;;;;;;;9.45;5.38;;;8.40;99.90;;;;;;6293600;28;20051;-75
2020/12/12 13:43:36;;;;;;;8.57;5.25;;;8.40;99.90;;;;;;6288406;28;20078;-75
2020/12/12 13:46:38;;;;;;;7.45;6.38;;;8.50;99.90;;;;;;6294836;28;20177;-76
2020/12/12 13:49:40;;;;;;;7.88;6.15;;;8.50;99.90;;;;;;6292409;28;20041;-76
2020/12/12 13:52:41;;;;;;;10.15;9.25;;;8.50;99.90;;;;;;6294775;28;20044;-76
2020/12/12 13:55:43;;;;;;;6.82;5.25;;;8.50;99.90;;;;;;6293183;28;20139;-76
2020/12/12 13:58:44;;;;;;;14.07;6.15;;;8.50;99.90;;;;;;6292187;28;20071;-76
2020/12/12 14:01:49;;;;;;;8.02;5.45;;;8.50;99.90;;;;;;6293549;28;20049;-76
2020/12/12 14:04:51;;;;;;;12.50;6.00;;;8.50;99.90;;;;;;6283212;28;20048;-77
2020/12/12 14:07:53;;;;;;;5.50;4.63;;;8.50;99.90;;;;;;6296548;28;20044;-76
2020/12/12 14:24:27;;;;;;;6.25;3.95;;;8.50;99.90;;;;;;6279960;28;20045;-76
2020/12/12 14:30:47;;;;;;;5.00;4.22;;;9.10;99.90;;;;;;6295505;28;20041;-76
2020/12/12 14:33:49;;;;;;;5.55;4.68;;;9.30;99.90;;;;;;6295589;28;20075;-76
2020/12/12 14:36:51;;;;;;;3.33;2.90;;;9.10;99.90;;;;;;6293093;28;20040;-76
2020/12/12 14:39:52;;;;;;;4.00;3.60;;;9.00;99.90;;;;;;6293504;28;20060;-76
2020/12/12 14:42:53;;;;;;;4.10;3.70;;;8.80;99.90;;;;;;6298452;28;20135;-78
2020/12/12 14:45:55;;;;;;;5.97;3.40;;;8.70;99.90;;;;;;6295393;28;20061;-78
2020/12/12 14:48:56;;;;;;;5.93;3.05;;;8.50;99.90;;;;;;6297570;28;20083;-78
2020/12/12 14:51:58;;;;;;;4.70;3.50;;;8.50;99.90;;;;;;6292940;28;20123;-78
2020/12/12 14:55:00;;;;;;;4.50;2.80;;;8.40;99.90;;;;;;6294767;28;20045;-78
2020/12/12 14:58:02;;;;;;;5.03;3.45;;;8.30;99.90;;;;;;6287433;28;20048;-78
2020/12/12 15:01:03;;;;;;;6.38;4.40;;;8.30;99.90;;;;;;6295087;28;20045;-77
2020/12/12 15:04:04;;;;;;;5.07;4.05;;;8.30;99.90;;;;;;6296142;28;20119;-78
2020/12/12 15:07:08;;;;;;;4.07;3.45;;;8.30;99.90;;;;;;6298233;22;20049;-73
2020/12/12 15:10:11;;;;;;;7.55;3.78;;;8.40;99.90;;;;;;6272528;28;20075;-74
2020/12/12 15:13:19;;;;;;;6.70;5.28;;;;;;;;;;6251735;28;20507;-75
2020/12/12 15:16:22;;;;;;;5.43;4.85;;;8.20;99.90;;;;;;6248803;28;20045;-75
2020/12/12 15:19:27;;;;;;;8.48;6.05;;;8.20;99.90;;;;;;6243643;28;20041;-75
2020/12/12 15:22:33;;;;;;;6.85;6.25;;;8.20;99.90;;;;;;6246159;28;20458;-75
2020/12/12 15:25:38;;;;;;;8.25;7.22;;;8.20;99.90;;;;;;6245867;28;20052;-75
2020/12/12 15:28:44;;;;;;;7.05;6.40;;;8.20;99.90;;;;;;6232766;28;20490;-74
2020/12/12 15:31:50;;;;;;;8.25;7.45;;;8.20;99.90;;;;;;6242847;28;20045;-75
2020/12/12 15:34:54;;;;;;;6.78;6.07;;;8.20;99.90;;;;;;6245688;28;20633;-75
2020/12/12 15:38:01;;;;;;;8.95;6.60;;;8.20;99.90;;;;;;6245407;28;20057;-73
2020/12/12 15:41:07;;;;;;;9.98;6.60;;;8.20;99.90;;;;;;6245529;28;20124;-73
2020/12/12 15:44:15;;;;;;;7.85;7.10;;;8.20;99.90;;;;;;6245403;28;20084;-73
2020/12/12 15:47:18;;;;;;;;;;;8.20;99.90;;;;;;6245653;28;20502;-74
2020/12/12 15:50:22;;;;;;;12.80;9.50;;;8.20;99.90;;;;;;6245546;28;20008;-74
2020/12/12 15:53:28;;;;;;;11.68;8.30;;;8.20;99.90;;;;;;6246507;28;20049;-74
2020/12/12 15:56:42;;;;;;;12.05;9.50;;;8.20;99.90;;;;;;6244228;28;20049;-75
2020/12/12 15:59:44;;;;;;;14.63;12.50;;;8.20;99.90;;;;;;6244610;28;20057;-75
2020/12/12 16:02:50;;;;;;;11.07;9.98;;;8.20;99.90;;;;;;6245151;28;20124;-73
2020/12/12 16:05:56;;;;;;;13.90;10.55;;;8.20;99.90;;;;;;6245559;28;20046;-74
2020/12/12 16:09:00;;;;;;;14.70;13.00;;;8.20;99.90;;;;;;6243341;28;20048;-75